sensor_id;sensor_type;location;lat;lon;timestamp;P1;durP1;ratioP1;P2;durP2;ratioP2
33170;SDS011;19535;50.672;4.206;2022-10-17T00:02:10;11.68;;;10.77;;
33170;SDS011;19535;50.672;4.206;2022-10-17T00:04:37;11.82;;;10.93;;
33170;SDS011;19535;50.672;4.206;2022-10-17T00:07:03;12.82;;;11.82;;
33170;SDS011;19535;50.672;4.206;2022-10-17T00:09:30;11.48;;;10.57;;
33170;SDS011;19535;50.672;4.206;2022-10-17T00:11:57;11.75;;;10.70;;
33170;SDS011;19535;50.672;4.206;2022-10-17T00:14:23;11.30;;;10.20;;
33170;SDS011;19535;50.672;4.206;2022-10-17T00:16:50;11.38;;;10.48;;
33170;SDS011;19535;50.672;4.206;2022-10-17T00:19:17;11.00;;;10.10;;
33170;SDS011;19535;50.672;4.206;2022-10-17T00:21:44;10.95;;;10.05;;
33170;SDS011;19535;50.672;4.206;2022-10-17T00:24:10;10.63;;;9.73;;
33170;SDS011;19535;50.672;4.206;2022-10-17T00:26:37;10.82;;;9.90;;
33170;SDS011;19535;50.672;4.206;2022-10-17T00:29:04;10.38;;;9.48;;
33170;SDS011;19535;50.672;4.206;2022-10-17T00:31:31;10.23;;;9.43;;
33170;SDS011;19535;50.672;4.206;2022-10-17T00:33:58;10.77;;;9.88;;
33170;SDS011;19535;50.672;4.206;2022-10-17T00:36:24;10.55;;;9.75;;
33170;SDS011;19535;50.672;4.206;2022-10-17T00:38:53;8.75;;;8.05;;
33170;SDS011;19535;50.672;4.206;2022-10-17T00:46:16;8.73;;;8.13;;
33170;SDS011;19535;50.672;4.206;2022-10-17T00:48:43;9.63;;;8.82;;
33170;SDS011;19535;50.672;4.206;2022-10-17T00:51:10;9.52;;;8.75;;
33170;SDS011;19535;50.672;4.206;2022-10-17T00:53:37;9.05;;;8.25;;
33170;SDS011;19535;50.672;4.206;2022-10-17T00:56:05;8.80;;;8.10;;
33170;SDS011;19535;50.672;4.206;2022-10-17T00:58:32;8.90;;;8.20;;
33170;SDS011;19535;50.672;4.206;2022-10-17T01:00:58;9.73;;;8.85;;
33170;SDS011;19535;50.672;4.206;2022-10-17T01:03:26;8.95;;;8.10;;
33170;SDS011;19535;50.672;4.206;2022-10-17T01:05:53;8.55;;;7.90;;
33170;SDS011;19535;50.672;4.206;2022-10-17T01:08:20;8.10;;;7.43;;
33170;SDS011;19535;50.672;4.206;2022-10-17T01:13:53;7.72;;;7.13;;
33170;SDS011;19535;50.672;4.206;2022-10-17T01:22:17;7.97;;;7.32;;
33170;SDS011;19535;50.672;4.206;2022-10-17T01:31:11;7.82;;;7.13;;
33170;SDS011;19535;50.672;4.206;2022-10-17T01:36:08;7.60;;;6.88;;
33170;SDS011;19535;50.672;4.206;2022-10-17T01:39:01;7.32;;;6.80;;
33170;SDS011;19535;50.672;4.206;2022-10-17T01:44:59;6.90;;;6.40;;
33170;SDS011;19535;50.672;4.206;2022-10-17T01:47:28;7.25;;;6.65;;
33170;SDS011;19535;50.672;4.206;2022-10-17T01:49:58;7.28;;;6.68;;
33170;SDS011;19535;50.672;4.206;2022-10-17T01:52:34;6.82;;;6.22;;
33170;SDS011;19535;50.672;4.206;2022-10-17T01:55:09;6.85;;;6.35;;
33170;SDS011;19535;50.672;4.206;2022-10-17T01:57:40;6.40;;;5.93;;
33170;SDS011;19535;50.672;4.206;2022-10-17T02:02:37;6.82;;;6.32;;
33170;SDS011;19535;50.672;4.206;2022-10-17T02:05:04;7.20;;;6.60;;
33170;SDS011;19535;50.672;4.206;2022-10-17T02:07:31;6.93;;;6.40;;
33170;SDS011;19535;50.672;4.206;2022-10-17T02:09:58;6.63;;;6.13;;
33170;SDS011;19535;50.672;4.206;2022-10-17T02:12:35;6.80;;;6.30;;
33170;SDS011;19535;50.672;4.206;2022-10-17T02:20:32;6.30;;;5.80;;
33170;SDS011;19535;50.672;4.206;2022-10-17T02:23:10;6.78;;;6.28;;
33170;SDS011;19535;50.672;4.206;2022-10-17T02:25:50;6.10;;;5.60;;
33170;SDS011;19535;50.672;4.206;2022-10-17T02:28:42;6.07;;;5.57;;
33170;SDS011;19535;50.672;4.206;2022-10-17T02:31:18;5.70;;;5.30;;
33170;SDS011;19535;50.672;4.206;2022-10-17T02:33:49;5.82;;;5.28;;
33170;SDS011;19535;50.672;4.206;2022-10-17T02:36:23;6.15;;;5.65;;
33170;SDS011;19535;50.672;4.206;2022-10-17T02:38:52;5.78;;;5.28;;
33170;SDS011;19535;50.672;4.206;2022-10-17T02:41:20;5.53;;;5.13;;
33170;SDS011;19535;50.672;4.206;2022-10-17T02:43:49;5.38;;;4.97;;
33170;SDS011;19535;50.672;4.206;2022-10-17T02:46:18;5.38;;;4.97;;
33170;SDS011;19535;50.672;4.206;2022-10-17T02:48:51;5.20;;;4.82;;
33170;SDS011;19535;50.672;4.206;2022-10-17T02:56:38;6.13;;;5.63;;
33170;SDS011;19535;50.672;4.206;2022-10-17T02:59:08;5.50;;;5.00;;
33170;SDS011;19535;50.672;4.206;2022-10-17T03:04:08;5.80;;;5.30;;
33170;SDS011;19535;50.672;4.206;2022-10-17T03:06:36;5.82;;;5.32;;
33170;SDS011;19535;50.672;4.206;2022-10-17T03:09:03;5.10;;;4.70;;
33170;SDS011;19535;50.672;4.206;2022-10-17T03:11:30;5.10;;;4.70;;
33170;SDS011;19535;50.672;4.206;2022-10-17T03:13:57;5.28;;;4.88;;
33170;SDS011;19535;50.672;4.206;2022-10-17T03:16:24;4.85;;;4.47;;
33170;SDS011;19535;50.672;4.206;2022-10-17T03:18:50;5.28;;;4.88;;
33170;SDS011;19535;50.672;4.206;2022-10-17T03:21:17;4.82;;;4.50;;
33170;SDS011;19535;50.672;4.206;2022-10-17T03:23:44;5.15;;;4.57;;
33170;SDS011;19535;50.672;4.206;2022-10-17T03:26:11;5.32;;;4.90;;
33170;SDS011;19535;50.672;4.206;2022-10-17T03:28:38;4.68;;;4.28;;
33170;SDS011;19535;50.672;4.206;2022-10-17T03:31:23;4.72;;;4.32;;
33170;SDS011;19535;50.672;4.206;2022-10-17T03:33:49;5.18;;;4.78;;
33170;SDS011;19535;50.672;4.206;2022-10-17T03:36:17;5.10;;;4.70;;
33170;SDS011;19535;50.672;4.206;2022-10-17T03:38:44;4.90;;;4.57;;
33170;SDS011;19535;50.672;4.206;2022-10-17T03:41:11;4.70;;;4.40;;
33170;SDS011;19535;50.672;4.206;2022-10-17T03:43:38;4.72;;;4.32;;
33170;SDS011;19535;50.672;4.206;2022-10-17T03:46:05;4.97;;;4.57;;
33170;SDS011;19535;50.672;4.206;2022-10-17T03:48:33;4.20;;;3.90;;
33170;SDS011;19535;50.672;4.206;2022-10-17T03:51:03;4.47;;;4.13;;
33170;SDS011;19535;50.672;4.206;2022-10-17T03:53:31;4.32;;;4.03;;
33170;SDS011;19535;50.672;4.206;2022-10-17T03:56:11;4.20;;;3.90;;
33170;SDS011;19535;50.672;4.206;2022-10-17T03:58:40;4.55;;;4.15;;
33170;SDS011;19535;50.672;4.206;2022-10-17T04:01:07;4.20;;;3.90;;
33170;SDS011;19535;50.672;4.206;2022-10-17T04:03:35;4.28;;;3.97;;
33170;SDS011;19535;50.672;4.206;2022-10-17T04:06:03;4.30;;;4.00;;
33170;SDS011;19535;50.672;4.206;2022-10-17T04:08:30;4.45;;;4.15;;
33170;SDS011;19535;50.672;4.206;2022-10-17T04:10:57;4.30;;;4.00;;
33170;SDS011;19535;50.672;4.206;2022-10-17T04:13:28;4.68;;;4.30;;
33170;SDS011;19535;50.672;4.206;2022-10-17T04:15:59;4.10;;;3.80;;
33170;SDS011;19535;50.672;4.206;2022-10-17T04:18:27;3.92;;;3.72;;
33170;SDS011;19535;50.672;4.206;2022-10-17T04:20:54;4.20;;;3.90;;
33170;SDS011;19535;50.672;4.206;2022-10-17T04:23:20;4.20;;;3.90;;
33170;SDS011;19535;50.672;4.206;2022-10-17T04:25:47;4.28;;;3.97;;
33170;SDS011;19535;50.672;4.206;2022-10-17T04:28:14;4.15;;;3.85;;
33170;SDS011;19535;50.672;4.206;2022-10-17T04:30:41;3.80;;;3.50;;
33170;SDS011;19535;50.672;4.206;2022-10-17T04:33:10;4.15;;;3.85;;
33170;SDS011;19535;50.672;4.206;2022-10-17T04:35:37;4.00;;;3.70;;
33170;SDS011;19535;50.672;4.206;2022-10-17T04:38:04;3.70;;;3.40;;
33170;SDS011;19535;50.672;4.206;2022-10-17T04:40:31;3.75;;;3.45;;
33170;SDS011;19535;50.672;4.206;2022-10-17T04:42:57;3.67;;;3.38;;
33170;SDS011;19535;50.672;4.206;2022-10-17T04:45:24;4.00;;;3.70;;
33170;SDS011;19535;50.672;4.206;2022-10-17T04:47:51;3.70;;;3.50;;
33170;SDS011;19535;50.672;4.206;2022-10-17T04:50:18;3.97;;;3.60;;
33170;SDS011;19535;50.672;4.206;2022-10-17T04:52:45;3.90;;;3.60;;
33170;SDS011;19535;50.672;4.206;2022-10-17T04:55:11;3.88;;;3.58;;
33170;SDS011;19535;50.672;4.206;2022-10-17T04:57:38;3.88;;;3.58;;
33170;SDS011;19535;50.672;4.206;2022-10-17T05:00:05;3.25;;;2.95;;
33170;SDS011;19535;50.672;4.206;2022-10-17T05:02:39;3.80;;;3.50;;
33170;SDS011;19535;50.672;4.206;2022-10-17T05:05:06;3.63;;;3.42;;
33170;SDS011;19535;50.672;4.206;2022-10-17T05:07:33;3.63;;;3.33;;
33170;SDS011;19535;50.672;4.206;2022-10-17T05:10:00;4.00;;;3.60;;
33170;SDS011;19535;50.672;4.206;2022-10-17T05:12:26;3.42;;;3.13;;
33170;SDS011;19535;50.672;4.206;2022-10-17T05:14:54;3.45;;;3.15;;
33170;SDS011;19535;50.672;4.206;2022-10-17T05:17:21;3.70;;;3.38;;
33170;SDS011;19535;50.672;4.206;2022-10-17T05:19:47;3.13;;;2.92;;
33170;SDS011;19535;50.672;4.206;2022-10-17T05:22:14;3.80;;;3.50;;
33170;SDS011;19535;50.672;4.206;2022-10-17T05:24:41;3.80;;;3.40;;
33170;SDS011;19535;50.672;4.206;2022-10-17T05:27:07;3.42;;;3.22;;
33170;SDS011;19535;50.672;4.206;2022-10-17T05:29:34;3.40;;;3.20;;
33170;SDS011;19535;50.672;4.206;2022-10-17T05:32:01;3.25;;;3.05;;
33170;SDS011;19535;50.672;4.206;2022-10-17T05:34:28;3.17;;;2.90;;
33170;SDS011;19535;50.672;4.206;2022-10-17T05:36:55;3.80;;;3.50;;
33170;SDS011;19535;50.672;4.206;2022-10-17T05:39:22;3.80;;;3.47;;
33170;SDS011;19535;50.672;4.206;2022-10-17T05:41:49;3.58;;;3.38;;
33170;SDS011;19535;50.672;4.206;2022-10-17T05:44:17;3.13;;;2.92;;
33170;SDS011;19535;50.672;4.206;2022-10-17T05:46:44;3.53;;;3.22;;
33170;SDS011;19535;50.672;4.206;2022-10-17T05:49:14;3.25;;;2.95;;
33170;SDS011;19535;50.672;4.206;2022-10-17T05:52:01;3.58;;;3.28;;
33170;SDS011;19535;50.672;4.206;2022-10-17T05:54:28;3.35;;;3.15;;
33170;SDS011;19535;50.672;4.206;2022-10-17T05:56:55;3.45;;;3.25;;
33170;SDS011;19535;50.672;4.206;2022-10-17T05:59:25;3.50;;;3.20;;
33170;SDS011;19535;50.672;4.206;2022-10-17T06:01:53;3.45;;;3.15;;
33170;SDS011;19535;50.672;4.206;2022-10-17T06:04:20;3.60;;;3.33;;
33170;SDS011;19535;50.672;4.206;2022-10-17T06:06:46;3.60;;;3.40;;
33170;SDS011;19535;50.672;4.206;2022-10-17T06:09:13;3.17;;;2.97;;
33170;SDS011;19535;50.672;4.206;2022-10-17T06:11:40;2.78;;;2.58;;
33170;SDS011;19535;50.672;4.206;2022-10-17T06:14:07;3.10;;;2.90;;
33170;SDS011;19535;50.672;4.206;2022-10-17T06:16:33;3.15;;;2.95;;
33170;SDS011;19535;50.672;4.206;2022-10-17T06:19:00;3.38;;;3.08;;
33170;SDS011;19535;50.672;4.206;2022-10-17T06:21:27;22.80;;;20.80;;
33170;SDS011;19535;50.672;4.206;2022-10-17T06:23:54;24.25;;;22.02;;
33170;SDS011;19535;50.672;4.206;2022-10-17T06:26:21;20.25;;;18.50;;
33170;SDS011;19535;50.672;4.206;2022-10-17T06:28:47;15.60;;;14.35;;
33170;SDS011;19535;50.672;4.206;2022-10-17T06:31:15;13.02;;;11.93;;
33170;SDS011;19535;50.672;4.206;2022-10-17T06:33:42;10.40;;;9.55;;
33170;SDS011;19535;50.672;4.206;2022-10-17T06:36:10;9.65;;;8.80;;
33170;SDS011;19535;50.672;4.206;2022-10-17T06:38:38;9.73;;;8.82;;
33170;SDS011;19535;50.672;4.206;2022-10-17T06:41:14;20.10;;;18.30;;
33170;SDS011;19535;50.672;4.206;2022-10-17T06:43:44;36.83;;;33.53;;
33170;SDS011;19535;50.672;4.206;2022-10-17T06:46:16;29.10;;;26.60;;
33170;SDS011;19535;50.672;4.206;2022-10-17T06:48:44;20.33;;;18.50;;
33170;SDS011;19535;50.672;4.206;2022-10-17T06:51:10;15.65;;;14.40;;
33170;SDS011;19535;50.672;4.206;2022-10-17T06:53:38;13.88;;;12.68;;
33170;SDS011;19535;50.672;4.206;2022-10-17T06:56:06;13.18;;;12.07;;
33170;SDS011;19535;50.672;4.206;2022-10-17T06:58:34;13.10;;;11.48;;
33170;SDS011;19535;50.672;4.206;2022-10-17T07:01:05;10.73;;;9.93;;
33170;SDS011;19535;50.672;4.206;2022-10-17T07:03:34;11.27;;;10.38;;
33170;SDS011;19535;50.672;4.206;2022-10-17T07:06:01;10.73;;;9.93;;
33170;SDS011;19535;50.672;4.206;2022-10-17T07:08:29;10.70;;;9.70;;
33170;SDS011;19535;50.672;4.206;2022-10-17T07:10:56;9.13;;;8.35;;
33170;SDS011;19535;50.672;4.206;2022-10-17T07:13:23;9.77;;;8.98;;
33170;SDS011;19535;50.672;4.206;2022-10-17T07:15:50;9.43;;;8.43;;
33170;SDS011;19535;50.672;4.206;2022-10-17T07:18:17;8.88;;;8.20;;
33170;SDS011;19535;50.672;4.206;2022-10-17T07:20:51;8.88;;;8.15;;
33170;SDS011;19535;50.672;4.206;2022-10-17T07:23:19;9.23;;;8.32;;
33170;SDS011;19535;50.672;4.206;2022-10-17T07:25:46;16.05;;;14.60;;
33170;SDS011;19535;50.672;4.206;2022-10-17T07:28:13;20.77;;;19.17;;
33170;SDS011;19535;50.672;4.206;2022-10-17T07:30:40;17.52;;;16.02;;
33170;SDS011;19535;50.672;4.206;2022-10-17T07:33:07;13.45;;;12.45;;
33170;SDS011;19535;50.672;4.206;2022-10-17T07:35:36;12.35;;;11.25;;
33170;SDS011;19535;50.672;4.206;2022-10-17T07:38:03;12.45;;;11.27;;
33170;SDS011;19535;50.672;4.206;2022-10-17T07:40:30;13.10;;;11.38;;
33170;SDS011;19535;50.672;4.206;2022-10-17T07:42:57;15.35;;;12.93;;
33170;SDS011;19535;50.672;4.206;2022-10-17T07:45:23;17.15;;;14.98;;
33170;SDS011;19535;50.672;4.206;2022-10-17T07:47:56;21.07;;;18.00;;
33170;SDS011;19535;50.672;4.206;2022-10-17T07:50:23;22.73;;;19.92;;
33170;SDS011;19535;50.672;4.206;2022-10-17T07:52:50;31.67;;;25.15;;
33170;SDS011;19535;50.672;4.206;2022-10-17T07:55:17;39.92;;;28.27;;
33170;SDS011;19535;50.672;4.206;2022-10-17T07:57:43;31.65;;;28.23;;
33170;SDS011;19535;50.672;4.206;2022-10-17T08:00:10;32.92;;;27.50;;
33170;SDS011;19535;50.672;4.206;2022-10-17T08:02:37;31.38;;;25.83;;
33170;SDS011;19535;50.672;4.206;2022-10-17T08:05:04;42.47;;;32.80;;
33170;SDS011;19535;50.672;4.206;2022-10-17T08:07:31;41.35;;;34.17;;
33170;SDS011;19535;50.672;4.206;2022-10-17T08:09:58;36.67;;;31.55;;
33170;SDS011;19535;50.672;4.206;2022-10-17T08:12:25;37.47;;;31.75;;
33170;SDS011;19535;50.672;4.206;2022-10-17T08:14:53;37.28;;;30.20;;
33170;SDS011;19535;50.672;4.206;2022-10-17T08:17:19;37.90;;;30.63;;
33170;SDS011;19535;50.672;4.206;2022-10-17T08:19:46;36.33;;;29.15;;
33170;SDS011;19535;50.672;4.206;2022-10-17T08:22:13;34.38;;;28.83;;
33170;SDS011;19535;50.672;4.206;2022-10-17T08:24:40;33.40;;;28.38;;
33170;SDS011;19535;50.672;4.206;2022-10-17T08:27:08;29.98;;;26.98;;
33170;SDS011;19535;50.672;4.206;2022-10-17T08:29:37;41.97;;;35.17;;
33170;SDS011;19535;50.672;4.206;2022-10-17T08:32:04;51.22;;;44.00;;
33170;SDS011;19535;50.672;4.206;2022-10-17T08:34:35;39.50;;;35.42;;
33170;SDS011;19535;50.672;4.206;2022-10-17T08:37:01;37.08;;;33.15;;
33170;SDS011;19535;50.672;4.206;2022-10-17T08:39:28;35.75;;;31.92;;
33170;SDS011;19535;50.672;4.206;2022-10-17T08:47:27;34.40;;;29.08;;
33170;SDS011;19535;50.672;4.206;2022-10-17T08:50:00;29.65;;;26.58;;
33170;SDS011;19535;50.672;4.206;2022-10-17T08:52:37;32.75;;;27.60;;
33170;SDS011;19535;50.672;4.206;2022-10-17T08:55:31;29.15;;;26.08;;
33170;SDS011;19535;50.672;4.206;2022-10-17T08:58:21;27.55;;;24.65;;
33170;SDS011;19535;50.672;4.206;2022-10-17T09:06:28;26.17;;;23.50;;
33170;SDS011;19535;50.672;4.206;2022-10-17T09:17:33;23.63;;;20.38;;
33170;SDS011;19535;50.672;4.206;2022-10-17T09:22:50;39.97;;;35.83;;
33170;SDS011;19535;50.672;4.206;2022-10-17T09:25:27;37.25;;;33.25;;
33170;SDS011;19535;50.672;4.206;2022-10-17T09:27:58;38.05;;;34.00;;
33170;SDS011;19535;50.672;4.206;2022-10-17T09:30:57;36.60;;;32.40;;
33170;SDS011;19535;50.672;4.206;2022-10-17T09:33:28;34.40;;;31.15;;
33170;SDS011;19535;50.672;4.206;2022-10-17T09:36:19;34.38;;;31.10;;
33170;SDS011;19535;50.672;4.206;2022-10-17T09:38:48;33.17;;;30.05;;
33170;SDS011;19535;50.672;4.206;2022-10-17T09:49:37;28.98;;;26.17;;
33170;SDS011;19535;50.672;4.206;2022-10-17T09:54:47;27.73;;;24.98;;
33170;SDS011;19535;50.672;4.206;2022-10-17T09:57:16;28.60;;;25.67;;
33170;SDS011;19535;50.672;4.206;2022-10-17T09:59:45;27.00;;;24.50;;
33170;SDS011;19535;50.672;4.206;2022-10-17T10:02:22;24.25;;;21.90;;
33170;SDS011;19535;50.672;4.206;2022-10-17T10:04:54;23.17;;;20.20;;
33170;SDS011;19535;50.672;4.206;2022-10-17T10:07:35;26.95;;;19.20;;
33170;SDS011;19535;50.672;4.206;2022-10-17T10:10:04;23.80;;;18.15;;
33170;SDS011;19535;50.672;4.206;2022-10-17T10:12:34;24.92;;;18.50;;
33170;SDS011;19535;50.672;4.206;2022-10-17T10:17:59;29.00;;;17.92;;
33170;SDS011;19535;50.672;4.206;2022-10-17T10:20:28;28.55;;;18.23;;
33170;SDS011;19535;50.672;4.206;2022-10-17T10:25:54;22.17;;;16.70;;
33170;SDS011;19535;50.672;4.206;2022-10-17T10:28:30;26.20;;;16.77;;
33170;SDS011;19535;50.672;4.206;2022-10-17T10:30:59;25.90;;;17.40;;
33170;SDS011;19535;50.672;4.206;2022-10-17T10:33:31;21.42;;;15.00;;
33170;SDS011;19535;50.672;4.206;2022-10-17T10:36:04;24.10;;;16.20;;
33170;SDS011;19535;50.672;4.206;2022-10-17T10:38:33;25.23;;;16.65;;
33170;SDS011;19535;50.672;4.206;2022-10-17T10:41:02;27.65;;;17.17;;
33170;SDS011;19535;50.672;4.206;2022-10-17T10:46:06;33.15;;;21.35;;
33170;SDS011;19535;50.672;4.206;2022-10-17T10:49:03;23.90;;;18.15;;
33170;SDS011;19535;50.672;4.206;2022-10-17T10:51:31;23.92;;;18.15;;
33170;SDS011;19535;50.672;4.206;2022-10-17T10:54:10;25.85;;;17.20;;
33170;SDS011;19535;50.672;4.206;2022-10-17T10:56:44;22.15;;;15.63;;
33170;SDS011;19535;50.672;4.206;2022-10-17T10:59:37;23.65;;;16.33;;
33170;SDS011;19535;50.672;4.206;2022-10-17T11:02:16;23.30;;;16.65;;
33170;SDS011;19535;50.672;4.206;2022-10-17T11:04:48;26.50;;;16.42;;
33170;SDS011;19535;50.672;4.206;2022-10-17T11:07:22;23.75;;;15.43;;
33170;SDS011;19535;50.672;4.206;2022-10-17T11:09:59;20.88;;;14.20;;
33170;SDS011;19535;50.672;4.206;2022-10-17T11:12:53;20.85;;;14.55;;
33170;SDS011;19535;50.672;4.206;2022-10-17T11:15:47;18.50;;;14.25;;
33170;SDS011;19535;50.672;4.206;2022-10-17T11:21:05;19.35;;;14.25;;
33170;SDS011;19535;50.672;4.206;2022-10-17T11:26:25;20.85;;;14.07;;
33170;SDS011;19535;50.672;4.206;2022-10-17T11:28:54;19.27;;;14.45;;
33170;SDS011;19535;50.672;4.206;2022-10-17T11:31:22;19.60;;;13.15;;
33170;SDS011;19535;50.672;4.206;2022-10-17T11:33:53;16.73;;;12.82;;
33170;SDS011;19535;50.672;4.206;2022-10-17T11:36:26;18.40;;;12.45;;
33170;SDS011;19535;50.672;4.206;2022-10-17T11:38:56;21.08;;;13.90;;
33170;SDS011;19535;50.672;4.206;2022-10-17T11:41:30;19.20;;;12.93;;
33170;SDS011;19535;50.672;4.206;2022-10-17T11:44:19;15.43;;;12.50;;
33170;SDS011;19535;50.672;4.206;2022-10-17T11:50:21;15.13;;;12.10;;
33170;SDS011;19535;50.672;4.206;2022-10-17T11:53:21;14.38;;;11.88;;
33170;SDS011;19535;50.672;4.206;2022-10-17T11:55:49;15.50;;;11.82;;
33170;SDS011;19535;50.672;4.206;2022-10-17T12:01:11;15.25;;;11.85;;
33170;SDS011;19535;50.672;4.206;2022-10-17T12:14:52;15.48;;;12.48;;
33170;SDS011;19535;50.672;4.206;2022-10-17T12:25:26;14.88;;;10.77;;
33170;SDS011;19535;50.672;4.206;2022-10-17T12:30:32;16.40;;;11.30;;
33170;SDS011;19535;50.672;4.206;2022-10-17T12:33:13;12.43;;;10.98;;
33170;SDS011;19535;50.672;4.206;2022-10-17T12:38:44;15.00;;;11.25;;
33170;SDS011;19535;50.672;4.206;2022-10-17T12:41:15;14.40;;;10.75;;
33170;SDS011;19535;50.672;4.206;2022-10-17T12:44:00;25.17;;;22.63;;
33170;SDS011;19535;50.672;4.206;2022-10-17T12:46:44;20.75;;;18.50;;
33170;SDS011;19535;50.672;4.206;2022-10-17T12:52:04;14.68;;;12.20;;
33170;SDS011;19535;50.672;4.206;2022-10-17T13:00:36;19.73;;;17.80;;
33170;SDS011;19535;50.672;4.206;2022-10-17T13:03:25;18.77;;;16.42;;
33170;SDS011;19535;50.672;4.206;2022-10-17T13:06:01;13.65;;;12.25;;
33170;SDS011;19535;50.672;4.206;2022-10-17T13:08:31;16.33;;;11.10;;
33170;SDS011;19535;50.672;4.206;2022-10-17T13:10:59;13.82;;;11.05;;
33170;SDS011;19535;50.672;4.206;2022-10-17T13:16:02;14.68;;;11.00;;
33170;SDS011;19535;50.672;4.206;2022-10-17T13:18:29;14.00;;;11.07;;
33170;SDS011;19535;50.672;4.206;2022-10-17T13:21:06;12.70;;;10.20;;
33170;SDS011;19535;50.672;4.206;2022-10-17T13:23:40;13.55;;;10.32;;
33170;SDS011;19535;50.672;4.206;2022-10-17T13:31:38;11.40;;;8.80;;
33170;SDS011;19535;50.672;4.206;2022-10-17T13:34:15;10.20;;;9.18;;
33170;SDS011;19535;50.672;4.206;2022-10-17T13:36:45;11.18;;;9.90;;
33170;SDS011;19535;50.672;4.206;2022-10-17T13:39:15;11.20;;;8.80;;
33170;SDS011;19535;50.672;4.206;2022-10-17T13:41:57;9.90;;;8.13;;
33170;SDS011;19535;50.672;4.206;2022-10-17T13:44:25;9.68;;;8.68;;
33170;SDS011;19535;50.672;4.206;2022-10-17T13:46:53;10.15;;;9.10;;
33170;SDS011;19535;50.672;4.206;2022-10-17T13:51:53;9.63;;;8.73;;
33170;SDS011;19535;50.672;4.206;2022-10-17T13:54:31;8.93;;;8.10;;
33170;SDS011;19535;50.672;4.206;2022-10-17T13:59:56;9.02;;;8.13;;
33170;SDS011;19535;50.672;4.206;2022-10-17T14:02:26;8.73;;;7.93;;
33170;SDS011;19535;50.672;4.206;2022-10-17T14:10:39;28.55;;;25.85;;
33170;SDS011;19535;50.672;4.206;2022-10-17T14:13:15;18.90;;;17.10;;
33170;SDS011;19535;50.672;4.206;2022-10-17T14:15:45;15.05;;;13.48;;
33170;SDS011;19535;50.672;4.206;2022-10-17T14:18:14;11.98;;;10.88;;
33170;SDS011;19535;50.672;4.206;2022-10-17T14:20:48;13.82;;;11.25;;
33170;SDS011;19535;50.672;4.206;2022-10-17T14:23:37;10.32;;;9.32;;
33170;SDS011;19535;50.672;4.206;2022-10-17T14:26:08;10.13;;;9.20;;
33170;SDS011;19535;50.672;4.206;2022-10-17T14:28:38;10.20;;;9.20;;
33170;SDS011;19535;50.672;4.206;2022-10-17T14:31:22;9.93;;;8.95;;
33170;SDS011;19535;50.672;4.206;2022-10-17T14:33:51;10.02;;;9.02;;
33170;SDS011;19535;50.672;4.206;2022-10-17T14:36:19;9.57;;;8.73;;
33170;SDS011;19535;50.672;4.206;2022-10-17T14:38:54;9.02;;;8.20;;
33170;SDS011;19535;50.672;4.206;2022-10-17T14:44:13;8.50;;;7.70;;
33170;SDS011;19535;50.672;4.206;2022-10-17T14:46:44;8.88;;;7.85;;
33170;SDS011;19535;50.672;4.206;2022-10-17T14:49:17;8.48;;;7.68;;
33170;SDS011;19535;50.672;4.206;2022-10-17T14:54:50;8.80;;;7.90;;
33170;SDS011;19535;50.672;4.206;2022-10-17T14:57:18;8.93;;;7.78;;
33170;SDS011;19535;50.672;4.206;2022-10-17T14:59:45;8.13;;;7.25;;
33170;SDS011;19535;50.672;4.206;2022-10-17T15:02:21;8.55;;;7.60;;
33170;SDS011;19535;50.672;4.206;2022-10-17T15:04:52;8.02;;;7.32;;
33170;SDS011;19535;50.672;4.206;2022-10-17T15:07:19;7.93;;;7.22;;
33170;SDS011;19535;50.672;4.206;2022-10-17T15:09:47;7.97;;;7.18;;
33170;SDS011;19535;50.672;4.206;2022-10-17T15:12:15;8.10;;;7.30;;
33170;SDS011;19535;50.672;4.206;2022-10-17T15:14:44;7.78;;;7.07;;
33170;SDS011;19535;50.672;4.206;2022-10-17T15:17:14;7.75;;;6.95;;
33170;SDS011;19535;50.672;4.206;2022-10-17T15:19:46;7.63;;;6.93;;
33170;SDS011;19535;50.672;4.206;2022-10-17T15:22:13;8.40;;;6.97;;
33170;SDS011;19535;50.672;4.206;2022-10-17T15:24:41;7.70;;;7.07;;
33170;SDS011;19535;50.672;4.206;2022-10-17T15:27:18;7.78;;;6.50;;
33170;SDS011;19535;50.672;4.206;2022-10-17T15:29:46;7.20;;;6.60;;
33170;SDS011;19535;50.672;4.206;2022-10-17T15:32:14;7.88;;;7.13;;
33170;SDS011;19535;50.672;4.206;2022-10-17T15:34:41;7.47;;;6.70;;
33170;SDS011;19535;50.672;4.206;2022-10-17T15:37:14;8.02;;;6.78;;
33170;SDS011;19535;50.672;4.206;2022-10-17T15:39:47;7.65;;;6.95;;
33170;SDS011;19535;50.672;4.206;2022-10-17T15:42:19;7.60;;;6.75;;
33170;SDS011;19535;50.672;4.206;2022-10-17T15:44:55;7.47;;;6.63;;
33170;SDS011;19535;50.672;4.206;2022-10-17T15:47:27;7.15;;;6.47;;
33170;SDS011;19535;50.672;4.206;2022-10-17T15:49:56;7.57;;;6.65;;
33170;SDS011;19535;50.672;4.206;2022-10-17T15:52:24;7.22;;;6.53;;
33170;SDS011;19535;50.672;4.206;2022-10-17T15:54:51;6.50;;;5.93;;
33170;SDS011;19535;50.672;4.206;2022-10-17T15:57:20;7.28;;;6.50;;
33170;SDS011;19535;50.672;4.206;2022-10-17T15:59:51;6.88;;;6.28;;
33170;SDS011;19535;50.672;4.206;2022-10-17T16:02:21;6.88;;;6.18;;
33170;SDS011;19535;50.672;4.206;2022-10-17T16:04:48;6.50;;;5.90;;
33170;SDS011;19535;50.672;4.206;2022-10-17T16:07:17;6.28;;;5.68;;
33170;SDS011;19535;50.672;4.206;2022-10-17T16:09:45;6.47;;;5.63;;
33170;SDS011;19535;50.672;4.206;2022-10-17T16:12:14;5.68;;;5.18;;
33170;SDS011;19535;50.672;4.206;2022-10-17T16:14:42;7.10;;;6.50;;
33170;SDS011;19535;50.672;4.206;2022-10-17T16:17:11;6.30;;;5.68;;
33170;SDS011;19535;50.672;4.206;2022-10-17T16:19:42;6.30;;;5.72;;
33170;SDS011;19535;50.672;4.206;2022-10-17T16:24:46;6.25;;;5.68;;
33170;SDS011;19535;50.672;4.206;2022-10-17T16:27:13;6.53;;;5.60;;
33170;SDS011;19535;50.672;4.206;2022-10-17T16:29:39;6.38;;;5.43;;
33170;SDS011;19535;50.672;4.206;2022-10-17T16:32:07;5.82;;;5.30;;
33170;SDS011;19535;50.672;4.206;2022-10-17T16:34:34;6.15;;;5.65;;
33170;SDS011;19535;50.672;4.206;2022-10-17T16:37:01;6.22;;;5.65;;
33170;SDS011;19535;50.672;4.206;2022-10-17T16:39:28;6.00;;;5.45;;
33170;SDS011;19535;50.672;4.206;2022-10-17T16:41:54;5.65;;;5.15;;
33170;SDS011;19535;50.672;4.206;2022-10-17T16:44:24;5.95;;;5.45;;
33170;SDS011;19535;50.672;4.206;2022-10-17T16:46:50;6.15;;;5.55;;
33170;SDS011;19535;50.672;4.206;2022-10-17T16:49:17;6.20;;;5.60;;
33170;SDS011;19535;50.672;4.206;2022-10-17T16:51:44;5.32;;;4.93;;
33170;SDS011;19535;50.672;4.206;2022-10-17T16:54:11;5.90;;;5.40;;
33170;SDS011;19535;50.672;4.206;2022-10-17T16:56:37;6.25;;;5.28;;
33170;SDS011;19535;50.672;4.206;2022-10-17T16:59:04;5.75;;;5.25;;
33170;SDS011;19535;50.672;4.206;2022-10-17T17:01:31;5.75;;;5.25;;
33170;SDS011;19535;50.672;4.206;2022-10-17T17:03:58;5.25;;;4.75;;
33170;SDS011;19535;50.672;4.206;2022-10-17T17:06:26;5.57;;;5.07;;
33170;SDS011;19535;50.672;4.206;2022-10-17T17:08:54;5.57;;;5.07;;
33170;SDS011;19535;50.672;4.206;2022-10-17T17:11:22;5.90;;;5.30;;
33170;SDS011;19535;50.672;4.206;2022-10-17T17:13:50;7.60;;;4.97;;
33170;SDS011;19535;50.672;4.206;2022-10-17T17:16:18;5.28;;;4.88;;
33170;SDS011;19535;50.672;4.206;2022-10-17T17:18:53;5.30;;;4.90;;
33170;SDS011;19535;50.672;4.206;2022-10-17T17:21:21;8.65;;;5.03;;
33170;SDS011;19535;50.672;4.206;2022-10-17T17:23:48;5.43;;;5.03;;
33170;SDS011;19535;50.672;4.206;2022-10-17T17:26:16;4.90;;;4.45;;
33170;SDS011;19535;50.672;4.206;2022-10-17T17:31:13;5.72;;;5.18;;
33170;SDS011;19535;50.672;4.206;2022-10-17T17:36:09;39.92;;;36.30;;